sensor_id;sensor_type;location;lat;lon;timestamp;P1;durP1;ratioP1;P2;durP2;ratioP2
66870;SDS011;53780;44.998;9.926;2022-07-12T00:00:30;6.03;;;2.00;;
66870;SDS011;53780;44.998;9.926;2022-07-12T00:03:34;5.65;;;1.90;;
66870;SDS011;53780;44.998;9.926;2022-07-12T00:06:38;9.68;;;1.80;;
66870;SDS011;53780;44.998;9.926;2022-07-12T00:09:42;6.05;;;2.10;;
66870;SDS011;53780;44.998;9.926;2022-07-12T00:12:46;8.25;;;2.00;;
66870;SDS011;53780;44.998;9.926;2022-07-12T00:15:50;5.20;;;1.70;;
66870;SDS011;53780;44.998;9.926;2022-07-12T00:18:54;6.97;;;2.17;;
66870;SDS011;53780;44.998;9.926;2022-07-12T00:21:57;5.05;;;1.67;;
66870;SDS011;53780;44.998;9.926;2022-07-12T00:25:01;7.03;;;1.85;;
66870;SDS011;53780;44.998;9.926;2022-07-12T00:28:06;5.75;;;2.05;;
66870;SDS011;53780;44.998;9.926;2022-07-12T00:31:10;5.77;;;1.60;;
66870;SDS011;53780;44.998;9.926;2022-07-12T00:34:14;8.20;;;1.58;;
66870;SDS011;53780;44.998;9.926;2022-07-12T00:37:18;5.65;;;1.50;;
66870;SDS011;53780;44.998;9.926;2022-07-12T00:40:23;5.50;;;1.50;;
66870;SDS011;53780;44.998;9.926;2022-07-12T00:43:27;7.40;;;2.15;;
66870;SDS011;53780;44.998;9.926;2022-07-12T00:46:31;5.70;;;1.93;;
66870;SDS011;53780;44.998;9.926;2022-07-12T00:49:35;5.30;;;1.70;;
66870;SDS011;53780;44.998;9.926;2022-07-12T00:52:39;7.00;;;2.10;;
66870;SDS011;53780;44.998;9.926;2022-07-12T00:55:44;4.75;;;1.85;;
66870;SDS011;53780;44.998;9.926;2022-07-12T00:58:48;6.43;;;1.85;;
66870;SDS011;53780;44.998;9.926;2022-07-12T01:01:52;8.67;;;1.83;;
66870;SDS011;53780;44.998;9.926;2022-07-12T01:04:55;8.15;;;2.20;;
66870;SDS011;53780;44.998;9.926;2022-07-12T01:08:01;5.50;;;1.98;;
66870;SDS011;53780;44.998;9.926;2022-07-12T01:11:05;7.25;;;2.10;;
66870;SDS011;53780;44.998;9.926;2022-07-12T01:14:09;6.65;;;2.05;;
66870;SDS011;53780;44.998;9.926;2022-07-12T01:17:14;6.43;;;2.10;;
66870;SDS011;53780;44.998;9.926;2022-07-12T01:20:18;9.25;;;2.20;;
66870;SDS011;53780;44.998;9.926;2022-07-12T01:23:22;7.47;;;2.08;;
66870;SDS011;53780;44.998;9.926;2022-07-12T01:26:28;5.90;;;1.92;;
66870;SDS011;53780;44.998;9.926;2022-07-12T01:29:31;6.15;;;1.88;;
66870;SDS011;53780;44.998;9.926;2022-07-12T01:32:36;6.43;;;2.00;;
66870;SDS011;53780;44.998;9.926;2022-07-12T01:35:40;7.50;;;2.40;;
66870;SDS011;53780;44.998;9.926;2022-07-12T01:38:44;10.48;;;2.20;;
66870;SDS011;53780;44.998;9.926;2022-07-12T01:41:48;5.38;;;2.08;;
66870;SDS011;53780;44.998;9.926;2022-07-12T01:44:53;6.32;;;2.10;;
66870;SDS011;53780;44.998;9.926;2022-07-12T01:47:58;6.03;;;2.20;;
66870;SDS011;53780;44.998;9.926;2022-07-12T01:51:02;5.32;;;1.98;;
66870;SDS011;53780;44.998;9.926;2022-07-12T01:54:06;5.88;;;2.17;;
66870;SDS011;53780;44.998;9.926;2022-07-12T01:57:10;5.65;;;1.92;;
66870;SDS011;53780;44.998;9.926;2022-07-12T02:00:15;6.25;;;2.20;;
66870;SDS011;53780;44.998;9.926;2022-07-12T02:03:20;5.97;;;1.93;;
66870;SDS011;53780;44.998;9.926;2022-07-12T02:06:24;6.32;;;1.85;;
66870;SDS011;53780;44.998;9.926;2022-07-12T02:09:28;6.03;;;2.28;;
66870;SDS011;53780;44.998;9.926;2022-07-12T02:12:33;5.88;;;2.28;;
66870;SDS011;53780;44.998;9.926;2022-07-12T02:15:37;7.47;;;2.10;;
66870;SDS011;53780;44.998;9.926;2022-07-12T02:18:40;6.17;;;2.10;;
66870;SDS011;53780;44.998;9.926;2022-07-12T02:21:44;6.60;;;2.50;;
66870;SDS011;53780;44.998;9.926;2022-07-12T02:24:48;9.63;;;2.15;;
66870;SDS011;53780;44.998;9.926;2022-07-12T02:27:53;7.78;;;2.42;;
66870;SDS011;53780;44.998;9.926;2022-07-12T02:30:56;5.70;;;2.20;;
66870;SDS011;53780;44.998;9.926;2022-07-12T02:34:01;7.33;;;3.03;;
66870;SDS011;53780;44.998;9.926;2022-07-12T02:37:05;7.75;;;2.42;;
66870;SDS011;53780;44.998;9.926;2022-07-12T02:40:09;7.03;;;2.60;;
66870;SDS011;53780;44.998;9.926;2022-07-12T02:43:31;7.03;;;2.63;;
66870;SDS011;53780;44.998;9.926;2022-07-12T02:46:37;5.28;;;2.60;;
66870;SDS011;53780;44.998;9.926;2022-07-12T02:49:41;9.67;;;3.07;;
66870;SDS011;53780;44.998;9.926;2022-07-12T02:52:44;9.93;;;3.35;;
66870;SDS011;53780;44.998;9.926;2022-07-12T02:55:48;7.20;;;2.83;;
66870;SDS011;53780;44.998;9.926;2022-07-12T02:58:52;7.60;;;3.05;;
66870;SDS011;53780;44.998;9.926;2022-07-12T03:01:56;8.52;;;2.95;;
66870;SDS011;53780;44.998;9.926;2022-07-12T03:05:01;8.70;;;3.13;;
66870;SDS011;53780;44.998;9.926;2022-07-12T03:08:05;7.75;;;3.20;;
66870;SDS011;53780;44.998;9.926;2022-07-12T03:11:10;7.95;;;3.10;;
66870;SDS011;53780;44.998;9.926;2022-07-12T03:14:14;7.13;;;3.25;;
66870;SDS011;53780;44.998;9.926;2022-07-12T03:17:18;7.35;;;3.30;;
66870;SDS011;53780;44.998;9.926;2022-07-12T03:20:21;11.43;;;3.70;;
66870;SDS011;53780;44.998;9.926;2022-07-12T03:23:26;8.30;;;3.60;;
66870;SDS011;53780;44.998;9.926;2022-07-12T03:26:30;12.15;;;3.20;;
66870;SDS011;53780;44.998;9.926;2022-07-12T03:29:33;8.50;;;3.70;;
66870;SDS011;53780;44.998;9.926;2022-07-12T03:32:37;7.60;;;3.72;;
66870;SDS011;53780;44.998;9.926;2022-07-12T03:35:41;9.30;;;3.40;;
66870;SDS011;53780;44.998;9.926;2022-07-12T03:38:45;8.98;;;3.80;;
66870;SDS011;53780;44.998;9.926;2022-07-12T03:41:49;9.57;;;3.95;;
66870;SDS011;53780;44.998;9.926;2022-07-12T03:44:53;12.05;;;3.80;;
66870;SDS011;53780;44.998;9.926;2022-07-12T03:47:57;9.15;;;3.92;;
66870;SDS011;53780;44.998;9.926;2022-07-12T03:51:01;11.57;;;3.73;;
66870;SDS011;53780;44.998;9.926;2022-07-12T03:54:05;9.65;;;4.05;;
66870;SDS011;53780;44.998;9.926;2022-07-12T03:57:12;8.93;;;3.70;;
66870;SDS011;53780;44.998;9.926;2022-07-12T04:00:19;9.50;;;3.75;;
66870;SDS011;53780;44.998;9.926;2022-07-12T04:03:23;11.52;;;3.50;;
66870;SDS011;53780;44.998;9.926;2022-07-12T04:06:26;11.00;;;3.90;;
66870;SDS011;53780;44.998;9.926;2022-07-12T04:09:30;7.60;;;3.50;;
66870;SDS011;53780;44.998;9.926;2022-07-12T04:12:34;7.18;;;3.67;;
66870;SDS011;53780;44.998;9.926;2022-07-12T04:15:38;10.93;;;3.92;;
66870;SDS011;53780;44.998;9.926;2022-07-12T04:18:42;8.15;;;3.80;;
66870;SDS011;53780;44.998;9.926;2022-07-12T04:21:46;7.80;;;4.17;;
66870;SDS011;53780;44.998;9.926;2022-07-12T04:24:50;10.70;;;4.63;;
66870;SDS011;53780;44.998;9.926;2022-07-12T04:27:54;11.00;;;4.70;;
66870;SDS011;53780;44.998;9.926;2022-07-12T04:30:59;7.10;;;4.10;;
66870;SDS011;53780;44.998;9.926;2022-07-12T04:34:05;9.93;;;3.55;;
66870;SDS011;53780;44.998;9.926;2022-07-12T04:37:09;7.63;;;3.20;;
66870;SDS011;53780;44.998;9.926;2022-07-12T04:40:13;8.93;;;3.60;;
66870;SDS011;53780;44.998;9.926;2022-07-12T04:43:17;7.95;;;3.58;;
66870;SDS011;53780;44.998;9.926;2022-07-12T04:46:20;8.43;;;3.65;;
66870;SDS011;53780;44.998;9.926;2022-07-12T04:49:24;9.48;;;3.50;;
66870;SDS011;53780;44.998;9.926;2022-07-12T04:52:28;10.77;;;4.50;;
66870;SDS011;53780;44.998;9.926;2022-07-12T04:55:32;11.70;;;4.40;;
66870;SDS011;53780;44.998;9.926;2022-07-12T04:58:36;11.55;;;4.47;;
66870;SDS011;53780;44.998;9.926;2022-07-12T05:01:39;8.80;;;4.32;;
66870;SDS011;53780;44.998;9.926;2022-07-12T05:04:44;9.63;;;5.18;;
66870;SDS011;53780;44.998;9.926;2022-07-12T05:07:48;9.50;;;4.20;;
66870;SDS011;53780;44.998;9.926;2022-07-12T05:10:52;11.15;;;4.35;;
66870;SDS011;53780;44.998;9.926;2022-07-12T05:13:56;10.25;;;4.15;;
66870;SDS011;53780;44.998;9.926;2022-07-12T05:17:00;13.75;;;4.22;;
66870;SDS011;53780;44.998;9.926;2022-07-12T05:20:04;11.50;;;4.25;;
66870;SDS011;53780;44.998;9.926;2022-07-12T05:23:09;10.07;;;4.73;;
66870;SDS011;53780;44.998;9.926;2022-07-12T05:26:13;9.40;;;4.55;;
66870;SDS011;53780;44.998;9.926;2022-07-12T05:29:16;12.35;;;4.97;;
66870;SDS011;53780;44.998;9.926;2022-07-12T05:32:20;11.38;;;4.60;;
66870;SDS011;53780;44.998;9.926;2022-07-12T05:35:24;8.43;;;4.28;;
66870;SDS011;53780;44.998;9.926;2022-07-12T05:38:28;11.43;;;4.63;;
66870;SDS011;53780;44.998;9.926;2022-07-12T05:41:32;7.80;;;3.65;;
66870;SDS011;53780;44.998;9.926;2022-07-12T05:44:36;11.68;;;4.28;;
66870;SDS011;53780;44.998;9.926;2022-07-12T05:47:40;13.48;;;4.75;;
66870;SDS011;53780;44.998;9.926;2022-07-12T05:50:43;10.45;;;3.90;;
66870;SDS011;53780;44.998;9.926;2022-07-12T05:53:47;11.97;;;4.40;;
66870;SDS011;53780;44.998;9.926;2022-07-12T05:56:51;10.45;;;4.07;;
66870;SDS011;53780;44.998;9.926;2022-07-12T05:59:55;10.05;;;3.63;;
66870;SDS011;53780;44.998;9.926;2022-07-12T06:02:59;9.07;;;4.43;;
66870;SDS011;53780;44.998;9.926;2022-07-12T06:06:03;9.85;;;4.63;;
66870;SDS011;53780;44.998;9.926;2022-07-12T06:09:07;12.23;;;4.63;;
66870;SDS011;53780;44.998;9.926;2022-07-12T06:12:10;10.52;;;4.43;;
66870;SDS011;53780;44.998;9.926;2022-07-12T06:15:14;8.40;;;4.20;;
66870;SDS011;53780;44.998;9.926;2022-07-12T06:18:18;9.73;;;3.83;;
66870;SDS011;53780;44.998;9.926;2022-07-12T06:21:22;10.38;;;4.10;;
66870;SDS011;53780;44.998;9.926;2022-07-12T06:24:25;7.03;;;3.57;;
66870;SDS011;53780;44.998;9.926;2022-07-12T06:27:29;11.85;;;3.63;;
66870;SDS011;53780;44.998;9.926;2022-07-12T06:30:33;10.65;;;4.15;;
66870;SDS011;53780;44.998;9.926;2022-07-12T06:33:37;7.88;;;3.72;;
66870;SDS011;53780;44.998;9.926;2022-07-12T06:36:40;10.25;;;4.30;;
66870;SDS011;53780;44.998;9.926;2022-07-12T06:39:47;9.10;;;3.60;;
66870;SDS011;53780;44.998;9.926;2022-07-12T06:42:51;13.52;;;4.07;;
66870;SDS011;53780;44.998;9.926;2022-07-12T06:45:55;8.75;;;3.78;;
66870;SDS011;53780;44.998;9.926;2022-07-12T06:48:59;12.02;;;4.03;;
66870;SDS011;53780;44.998;9.926;2022-07-12T06:52:03;10.95;;;4.10;;
66870;SDS011;53780;44.998;9.926;2022-07-12T06:55:07;10.33;;;3.60;;
66870;SDS011;53780;44.998;9.926;2022-07-12T06:58:12;9.82;;;4.03;;
66870;SDS011;53780;44.998;9.926;2022-07-12T07:01:16;9.02;;;3.83;;
66870;SDS011;53780;44.998;9.926;2022-07-12T07:04:20;8.60;;;3.42;;
66870;SDS011;53780;44.998;9.926;2022-07-12T07:07:25;8.23;;;3.33;;
66870;SDS011;53780;44.998;9.926;2022-07-12T07:10:29;8.83;;;4.13;;
66870;SDS011;53780;44.998;9.926;2022-07-12T07:13:33;7.13;;;3.28;;
66870;SDS011;53780;44.998;9.926;2022-07-12T07:16:37;7.35;;;3.00;;
66870;SDS011;53780;44.998;9.926;2022-07-12T07:19:42;7.22;;;3.30;;
66870;SDS011;53780;44.998;9.926;2022-07-12T07:22:47;9.20;;;3.30;;
66870;SDS011;53780;44.998;9.926;2022-07-12T07:25:51;6.50;;;2.93;;
66870;SDS011;53780;44.998;9.926;2022-07-12T07:28:55;5.50;;;2.95;;
66870;SDS011;53780;44.998;9.926;2022-07-12T07:32:18;6.78;;;3.42;;
66870;SDS011;53780;44.998;9.926;2022-07-12T07:35:23;7.85;;;2.85;;
66870;SDS011;53780;44.998;9.926;2022-07-12T07:38:27;7.97;;;2.60;;
66870;SDS011;53780;44.998;9.926;2022-07-12T07:41:31;7.00;;;2.43;;
66870;SDS011;53780;44.998;9.926;2022-07-12T07:44:35;8.68;;;2.72;;
66870;SDS011;53780;44.998;9.926;2022-07-12T07:47:46;6.20;;;2.40;;
66870;SDS011;53780;44.998;9.926;2022-07-12T07:50:52;5.90;;;2.75;;
66870;SDS011;53780;44.998;9.926;2022-07-12T07:53:56;6.75;;;2.30;;
66870;SDS011;53780;44.998;9.926;2022-07-12T07:57:00;9.03;;;2.53;;
66870;SDS011;53780;44.998;9.926;2022-07-12T08:00:04;7.93;;;2.53;;
66870;SDS011;53780;44.998;9.926;2022-07-12T08:03:15;7.35;;;2.60;;
66870;SDS011;53780;44.998;9.926;2022-07-12T08:06:18;6.85;;;2.47;;
66870;SDS011;53780;44.998;9.926;2022-07-12T08:09:22;7.47;;;2.50;;
66870;SDS011;53780;44.998;9.926;2022-07-12T08:12:26;10.73;;;2.63;;
66870;SDS011;53780;44.998;9.926;2022-07-12T08:15:30;6.05;;;2.55;;
66870;SDS011;53780;44.998;9.926;2022-07-12T08:18:34;6.50;;;2.75;;
66870;SDS011;53780;44.998;9.926;2022-07-12T08:21:38;7.60;;;2.78;;
66870;SDS011;53780;44.998;9.926;2022-07-12T08:24:42;6.53;;;2.70;;
66870;SDS011;53780;44.998;9.926;2022-07-12T08:27:46;6.17;;;2.50;;
66870;SDS011;53780;44.998;9.926;2022-07-12T08:30:49;8.30;;;2.42;;
66870;SDS011;53780;44.998;9.926;2022-07-12T08:33:53;7.72;;;2.55;;
66870;SDS011;53780;44.998;9.926;2022-07-12T08:36:57;9.02;;;2.83;;
66870;SDS011;53780;44.998;9.926;2022-07-12T08:40:02;5.30;;;2.33;;
66870;SDS011;53780;44.998;9.926;2022-07-12T08:43:06;6.27;;;2.20;;
66870;SDS011;53780;44.998;9.926;2022-07-12T08:46:11;6.38;;;2.08;;
66870;SDS011;53780;44.998;9.926;2022-07-12T08:49:16;6.10;;;2.17;;
66870;SDS011;53780;44.998;9.926;2022-07-12T08:52:24;5.53;;;2.00;;
66870;SDS011;53780;44.998;9.926;2022-07-12T08:55:33;6.80;;;2.17;;
66870;SDS011;53780;44.998;9.926;2022-07-12T08:58:38;6.07;;;2.40;;
66870;SDS011;53780;44.998;9.926;2022-07-12T09:05:06;6.75;;;2.17;;
66870;SDS011;53780;44.998;9.926;2022-07-12T09:08:10;5.80;;;1.98;;
66870;SDS011;53780;44.998;9.926;2022-07-12T09:11:14;5.20;;;2.28;;
66870;SDS011;53780;44.998;9.926;2022-07-12T09:14:19;5.40;;;2.53;;
66870;SDS011;53780;44.998;9.926;2022-07-12T09:17:23;8.80;;;2.53;;
66870;SDS011;53780;44.998;9.926;2022-07-12T09:20:28;5.55;;;1.70;;
66870;SDS011;53780;44.998;9.926;2022-07-12T09:23:36;7.45;;;2.38;;
66870;SDS011;53780;44.998;9.926;2022-07-12T09:26:40;5.88;;;2.20;;
66870;SDS011;53780;44.998;9.926;2022-07-12T09:29:47;5.83;;;2.27;;
66870;SDS011;53780;44.998;9.926;2022-07-12T09:32:52;7.93;;;2.20;;
66870;SDS011;53780;44.998;9.926;2022-07-12T09:36:25;4.53;;;1.98;;
66870;SDS011;53780;44.998;9.926;2022-07-12T09:39:29;7.70;;;2.10;;
66870;SDS011;53780;44.998;9.926;2022-07-12T09:42:33;6.13;;;2.05;;
66870;SDS011;53780;44.998;9.926;2022-07-12T09:45:39;7.03;;;2.10;;
66870;SDS011;53780;44.998;9.926;2022-07-12T09:48:44;6.72;;;2.20;;
66870;SDS011;53780;44.998;9.926;2022-07-12T09:51:49;5.60;;;1.90;;
66870;SDS011;53780;44.998;9.926;2022-07-12T09:55:00;5.10;;;1.90;;
66870;SDS011;53780;44.998;9.926;2022-07-12T09:58:06;7.13;;;1.98;;
66870;SDS011;53780;44.998;9.926;2022-07-12T10:01:12;6.37;;;1.90;;
66870;SDS011;53780;44.998;9.926;2022-07-12T10:04:20;4.97;;;1.88;;
66870;SDS011;53780;44.998;9.926;2022-07-12T10:07:27;4.97;;;1.88;;
66870;SDS011;53780;44.998;9.926;2022-07-12T10:10:31;7.05;;;1.92;;
66870;SDS011;53780;44.998;9.926;2022-07-12T10:13:36;5.20;;;1.90;;
66870;SDS011;53780;44.998;9.926;2022-07-12T10:16:44;6.10;;;1.97;;
66870;SDS011;53780;44.998;9.926;2022-07-12T10:19:49;6.13;;;2.00;;
66870;SDS011;53780;44.998;9.926;2022-07-12T10:26:24;5.05;;;1.90;;
66870;SDS011;53780;44.998;9.926;2022-07-12T10:29:29;7.30;;;2.30;;
66870;SDS011;53780;44.998;9.926;2022-07-12T10:32:34;7.53;;;2.10;;
66870;SDS011;53780;44.998;9.926;2022-07-12T10:35:39;8.95;;;1.90;;
66870;SDS011;53780;44.998;9.926;2022-07-12T10:39:11;6.65;;;2.05;;
66870;SDS011;53780;44.998;9.926;2022-07-12T10:42:16;7.82;;;2.42;;
66870;SDS011;53780;44.998;9.926;2022-07-12T10:45:23;4.70;;;1.85;;
66870;SDS011;53780;44.998;9.926;2022-07-12T10:48:27;7.13;;;2.00;;
66870;SDS011;53780;44.998;9.926;2022-07-12T10:51:31;5.65;;;2.20;;
66870;SDS011;53780;44.998;9.926;2022-07-12T10:54:43;5.18;;;2.30;;
66870;SDS011;53780;44.998;9.926;2022-07-12T10:57:53;5.82;;;2.10;;
66870;SDS011;53780;44.998;9.926;2022-07-12T11:00:58;4.85;;;1.80;;
66870;SDS011;53780;44.998;9.926;2022-07-12T11:04:03;5.43;;;1.90;;
66870;SDS011;53780;44.998;9.926;2022-07-12T11:07:09;6.63;;;2.10;;
66870;SDS011;53780;44.998;9.926;2022-07-12T11:10:14;5.18;;;2.28;;
66870;SDS011;53780;44.998;9.926;2022-07-12T11:13:21;5.32;;;2.17;;
66870;SDS011;53780;44.998;9.926;2022-07-12T11:16:29;4.72;;;2.22;;
66870;SDS011;53780;44.998;9.926;2022-07-12T11:19:33;5.37;;;2.33;;
66870;SDS011;53780;44.998;9.926;2022-07-12T11:22:41;7.57;;;2.50;;
66870;SDS011;53780;44.998;9.926;2022-07-12T11:25:45;4.13;;;1.98;;
66870;SDS011;53780;44.998;9.926;2022-07-12T11:28:49;6.07;;;2.30;;
66870;SDS011;53780;44.998;9.926;2022-07-12T11:32:03;7.50;;;2.40;;
66870;SDS011;53780;44.998;9.926;2022-07-12T11:35:17;6.63;;;2.60;;
66870;SDS011;53780;44.998;9.926;2022-07-12T11:38:25;8.00;;;2.20;;
66870;SDS011;53780;44.998;9.926;2022-07-12T11:41:29;5.13;;;2.00;;
66870;SDS011;53780;44.998;9.926;2022-07-12T11:44:49;5.53;;;2.10;;
66870;SDS011;53780;44.998;9.926;2022-07-12T11:47:58;5.05;;;2.38;;
66870;SDS011;53780;44.998;9.926;2022-07-12T11:51:04;5.67;;;2.20;;
66870;SDS011;53780;44.998;9.926;2022-07-12T11:54:09;7.40;;;2.03;;
66870;SDS011;53780;44.998;9.926;2022-07-12T11:57:13;6.30;;;2.20;;
66870;SDS011;53780;44.998;9.926;2022-07-12T12:00:19;4.63;;;2.17;;
66870;SDS011;53780;44.998;9.926;2022-07-12T12:03:25;5.57;;;2.40;;
66870;SDS011;53780;44.998;9.926;2022-07-12T12:06:29;4.93;;;2.10;;
66870;SDS011;53780;44.998;9.926;2022-07-12T12:09:57;7.80;;;2.53;;
66870;SDS011;53780;44.998;9.926;2022-07-12T12:13:12;6.45;;;2.40;;
66870;SDS011;53780;44.998;9.926;2022-07-12T12:16:19;5.07;;;2.03;;
66870;SDS011;53780;44.998;9.926;2022-07-12T12:19:22;7.38;;;2.10;;
66870;SDS011;53780;44.998;9.926;2022-07-12T12:22:36;6.17;;;2.30;;
66870;SDS011;53780;44.998;9.926;2022-07-12T12:25:41;6.60;;;1.90;;
66870;SDS011;53780;44.998;9.926;2022-07-12T12:28:48;7.95;;;2.20;;
66870;SDS011;53780;44.998;9.926;2022-07-12T12:31:56;8.38;;;2.60;;
66870;SDS011;53780;44.998;9.926;2022-07-12T12:35:10;7.00;;;2.17;;
66870;SDS011;53780;44.998;9.926;2022-07-12T12:38:15;5.10;;;2.30;;
66870;SDS011;53780;44.998;9.926;2022-07-12T12:41:19;5.22;;;2.40;;
66870;SDS011;53780;44.998;9.926;2022-07-12T12:44:28;5.07;;;2.22;;
66870;SDS011;53780;44.998;9.926;2022-07-12T12:47:50;6.32;;;2.85;;
66870;SDS011;53780;44.998;9.926;2022-07-12T12:51:08;5.65;;;2.30;;
66870;SDS011;53780;44.998;9.926;2022-07-12T12:54:15;5.67;;;2.30;;
66870;SDS011;53780;44.998;9.926;2022-07-12T12:57:18;5.15;;;2.40;;
66870;SDS011;53780;44.998;9.926;2022-07-12T13:00:23;7.63;;;2.30;;
66870;SDS011;53780;44.998;9.926;2022-07-12T13:03:27;5.82;;;2.10;;
66870;SDS011;53780;44.998;9.926;2022-07-12T13:06:30;8.60;;;2.40;;
66870;SDS011;53780;44.998;9.926;2022-07-12T13:09:35;6.17;;;2.40;;
66870;SDS011;53780;44.998;9.926;2022-07-12T13:12:39;9.02;;;2.40;;
66870;SDS011;53780;44.998;9.926;2022-07-12T13:15:43;5.20;;;2.42;;
66870;SDS011;53780;44.998;9.926;2022-07-12T13:18:47;5.80;;;2.50;;
66870;SDS011;53780;44.998;9.926;2022-07-12T13:21:51;4.60;;;2.58;;
66870;SDS011;53780;44.998;9.926;2022-07-12T13:24:55;6.37;;;2.50;;
66870;SDS011;53780;44.998;9.926;2022-07-12T13:28:00;6.80;;;2.58;;
66870;SDS011;53780;44.998;9.926;2022-07-12T13:31:03;4.82;;;2.60;;
66870;SDS011;53780;44.998;9.926;2022-07-12T13:34:07;7.13;;;2.78;;
66870;SDS011;53780;44.998;9.926;2022-07-12T13:37:11;5.15;;;2.70;;
66870;SDS011;53780;44.998;9.926;2022-07-12T13:40:15;5.20;;;2.47;;
66870;SDS011;53780;44.998;9.926;2022-07-12T13:43:24;9.52;;;2.60;;
66870;SDS011;53780;44.998;9.926;2022-07-12T13:46:29;5.95;;;2.60;;
66870;SDS011;53780;44.998;9.926;2022-07-12T13:49:32;7.22;;;2.25;;
66870;SDS011;53780;44.998;9.926;2022-07-12T13:52:37;4.60;;;2.50;;
66870;SDS011;53780;44.998;9.926;2022-07-12T13:55:42;6.13;;;2.40;;
66870;SDS011;53780;44.998;9.926;2022-07-12T13:58:47;6.53;;;2.90;;
66870;SDS011;53780;44.998;9.926;2022-07-12T14:01:51;6.38;;;2.63;;
66870;SDS011;53780;44.998;9.926;2022-07-12T14:04:55;5.95;;;2.83;;
66870;SDS011;53780;44.998;9.926;2022-07-12T14:07:59;6.18;;;3.10;;
66870;SDS011;53780;44.998;9.926;2022-07-12T14:11:03;7.40;;;2.50;;
66870;SDS011;53780;44.998;9.926;2022-07-12T14:14:07;6.63;;;2.92;;
66870;SDS011;53780;44.998;9.926;2022-07-12T14:17:12;6.22;;;2.85;;
66870;SDS011;53780;44.998;9.926;2022-07-12T14:20:18;5.35;;;3.00;;
66870;SDS011;53780;44.998;9.926;2022-07-12T14:23:25;5.07;;;2.83;;
66870;SDS011;53780;44.998;9.926;2022-07-12T14:26:29;8.30;;;3.10;;
66870;SDS011;53780;44.998;9.926;2022-07-12T14:29:32;9.02;;;3.33;;
66870;SDS011;53780;44.998;9.926;2022-07-12T14:32:37;9.45;;;3.13;;
66870;SDS011;53780;44.998;9.926;2022-07-12T14:35:42;7.97;;;2.88;;
66870;SDS011;53780;44.998;9.926;2022-07-12T14:38:46;6.30;;;2.67;;
66870;SDS011;53780;44.998;9.926;2022-07-12T14:41:50;5.10;;;2.90;;
66870;SDS011;53780;44.998;9.926;2022-07-12T14:44:54;6.25;;;3.10;;
66870;SDS011;53780;44.998;9.926;2022-07-12T14:47:57;6.88;;;2.90;;
66870;SDS011;53780;44.998;9.926;2022-07-12T14:51:02;7.32;;;3.13;;
66870;SDS011;53780;44.998;9.926;2022-07-12T14:54:06;7.90;;;3.28;;
66870;SDS011;53780;44.998;9.926;2022-07-12T14:57:10;5.77;;;2.90;;
66870;SDS011;53780;44.998;9.926;2022-07-12T15:00:14;6.57;;;2.97;;
66870;SDS011;53780;44.998;9.926;2022-07-12T15:03:18;5.90;;;2.70;;
66870;SDS011;53780;44.998;9.926;2022-07-12T15:06:22;7.05;;;3.08;;
66870;SDS011;53780;44.998;9.926;2022-07-12T15:09:26;7.10;;;2.70;;
66870;SDS011;53780;44.998;9.926;2022-07-12T15:12:30;5.87;;;2.87;;
66870;SDS011;53780;44.998;9.926;2022-07-12T15:15:35;5.00;;;2.95;;
66870;SDS011;53780;44.998;9.926;2022-07-12T15:18:39;6.72;;;3.05;;
66870;SDS011;53780;44.998;9.926;2022-07-12T15:21:44;6.25;;;3.00;;
66870;SDS011;53780;44.998;9.926;2022-07-12T15:24:48;6.28;;;3.05;;
66870;SDS011;53780;44.998;9.926;2022-07-12T15:27:52;10.63;;;3.20;;
66870;SDS011;53780;44.998;9.926;2022-07-12T15:30:56;6.10;;;3.00;;
66870;SDS011;53780;44.998;9.926;2022-07-12T15:34:00;6.90;;;3.33;;
66870;SDS011;53780;44.998;9.926;2022-07-12T15:37:05;6.70;;;3.00;;
66870;SDS011;53780;44.998;9.926;2022-07-12T15:40:09;7.20;;;3.20;;
66870;SDS011;53780;44.998;9.926;2022-07-12T15:43:13;7.50;;;2.90;;
66870;SDS011;53780;44.998;9.926;2022-07-12T15:46:17;4.72;;;3.10;;
66870;SDS011;53780;44.998;9.926;2022-07-12T15:49:21;5.68;;;3.17;;
66870;SDS011;53780;44.998;9.926;2022-07-12T15:52:25;6.20;;;3.20;;
66870;SDS011;53780;44.998;9.926;2022-07-12T15:55:48;5.47;;;3.00;;
66870;SDS011;53780;44.998;9.926;2022-07-12T15:58:52;9.17;;;3.33;;
66870;SDS011;53780;44.998;9.926;2022-07-12T16:01:57;5.50;;;3.00;;
66870;SDS011;53780;44.998;9.926;2022-07-12T16:05:02;9.57;;;3.40;;
66870;SDS011;53780;44.998;9.926;2022-07-12T16:08:06;6.00;;;3.28;;
66870;SDS011;53780;44.998;9.926;2022-07-12T16:11:10;6.28;;;3.08;;
66870;SDS011;53780;44.998;9.926;2022-07-12T16:14:14;8.67;;;3.13;;
66870;SDS011;53780;44.998;9.926;2022-07-12T16:17:18;6.97;;;3.13;;
66870;SDS011;53780;44.998;9.926;2022-07-12T16:20:24;6.22;;;3.10;;
66870;SDS011;53780;44.998;9.926;2022-07-12T16:23:28;6.43;;;2.83;;
66870;SDS011;53780;44.998;9.926;2022-07-12T16:26:32;5.95;;;2.92;;
66870;SDS011;53780;44.998;9.926;2022-07-12T16:29:36;6.07;;;3.17;;
66870;SDS011;53780;44.998;9.926;2022-07-12T16:32:40;6.40;;;2.90;;
66870;SDS011;53780;44.998;9.926;2022-07-12T16:35:45;8.10;;;3.03;;
66870;SDS011;53780;44.998;9.926;2022-07-12T16:38:49;6.43;;;2.75;;
66870;SDS011;53780;44.998;9.926;2022-07-12T16:41:53;7.70;;;2.72;;
66870;SDS011;53780;44.998;9.926;2022-07-12T16:44:56;5.93;;;2.90;;
66870;SDS011;53780;44.998;9.926;2022-07-12T16:48:00;6.18;;;2.80;;
66870;SDS011;53780;44.998;9.926;2022-07-12T16:51:04;9.85;;;2.85;;
66870;SDS011;53780;44.998;9.926;2022-07-12T16:54:26;6.43;;;3.00;;
66870;SDS011;53780;44.998;9.926;2022-07-12T16:57:30;7.80;;;3.00;;
66870;SDS011;53780;44.998;9.926;2022-07-12T17:00:34;5.23;;;2.63;;
66870;SDS011;53780;44.998;9.926;2022-07-12T17:03:38;5.43;;;2.70;;
66870;SDS011;53780;44.998;9.926;2022-07-12T17:06:43;5.05;;;2.60;;
66870;SDS011;53780;44.998;9.926;2022-07-12T17:09:47;5.45;;;2.50;;
66870;SDS011;53780;44.998;9.926;2022-07-12T17:12:51;4.72;;;2.70;;
66870;SDS011;53780;44.998;9.926;2022-07-12T17:15:55;4.93;;;3.00;;
66870;SDS011;53780;44.998;9.926;2022-07-12T17:18:59;7.35;;;2.88;;
66870;SDS011;53780;44.998;9.926;2022-07-12T17:22:09;6.57;;;2.72;;
66870;SDS011;53780;44.998;9.926;2022-07-12T17:25:13;10.57;;;2.55;;
66870;SDS011;53780;44.998;9.926;2022-07-12T17:28:17;8.45;;;2.72;;
66870;SDS011;53780;44.998;9.926;2022-07-12T17:31:21;5.43;;;2.77;;
66870;SDS011;53780;44.998;9.926;2022-07-12T17:34:28;5.60;;;3.08;;
66870;SDS011;53780;44.998;9.926;2022-07-12T17:37:34;8.32;;;3.10;;
66870;SDS011;53780;44.998;9.926;2022-07-12T17:40:38;6.43;;;2.50;;
66870;SDS011;53780;44.998;9.926;2022-07-12T17:43:42;5.65;;;2.78;;
66870;SDS011;53780;44.998;9.926;2022-07-12T17:46:46;5.60;;;2.70;;
66870;SDS011;53780;44.998;9.926;2022-07-12T17:49:51;5.30;;;2.50;;
66870;SDS011;53780;44.998;9.926;2022-07-12T17:52:55;7.10;;;2.70;;
66870;SDS011;53780;44.998;9.926;2022-07-12T17:55:59;6.97;;;2.60;;
66870;SDS011;53780;44.998;9.926;2022-07-12T17:59:03;6.93;;;2.70;;
66870;SDS011;53780;44.998;9.926;2022-07-12T18:02:07;6.87;;;2.80;;
66870;SDS011;53780;44.998;9.926;2022-07-12T18:05:11;7.28;;;3.13;;
66870;SDS011;53780;44.998;9.926;2022-07-12T18:08:15;6.70;;;2.78;;
66870;SDS011;53780;44.998;9.926;2022-07-12T18:11:19;8.13;;;2.70;;
66870;SDS011;53780;44.998;9.926;2022-07-12T18:14:41;6.63;;;2.85;;
66870;SDS011;53780;44.998;9.926;2022-07-12T18:17:49;5.03;;;2.90;;
66870;SDS011;53780;44.998;9.926;2022-07-12T18:21:05;7.20;;;3.00;;
66870;SDS011;53780;44.998;9.926;2022-07-12T18:24:10;8.25;;;3.13;;
66870;SDS011;53780;44.998;9.926;2022-07-12T18:27:14;7.20;;;2.67;;
66870;SDS011;53780;44.998;9.926;2022-07-12T18:30:19;6.88;;;2.83;;
66870;SDS011;53780;44.998;9.926;2022-07-12T18:33:24;7.07;;;2.77;;
66870;SDS011;53780;44.998;9.926;2022-07-12T18:36:28;6.63;;;2.90;;
66870;SDS011;53780;44.998;9.926;2022-07-12T18:39:32;6.93;;;2.90;;